sensor_id;sensor_type;location;lat;lon;timestamp;temperature;humidity
16402;DHT22;8310;44.626;11.176;2023-04-03T00:00:59;10.50;58.20
16402;DHT22;8310;44.626;11.176;2023-04-03T00:03:27;10.40;57.80
16402;DHT22;8310;44.626;11.176;2023-04-03T00:05:57;10.40;57.60
16402;DHT22;8310;44.626;11.176;2023-04-03T00:08:25;10.40;57.50
16402;DHT22;8310;44.626;11.176;2023-04-03T00:10:53;10.40;57.50
16402;DHT22;8310;44.626;11.176;2023-04-03T00:13:21;10.40;57.60
16402;DHT22;8310;44.626;11.176;2023-04-03T00:15:48;10.40;57.60
16402;DHT22;8310;44.626;11.176;2023-04-03T00:18:16;10.40;57.60
16402;DHT22;8310;44.626;11.176;2023-04-03T00:20:44;10.40;57.60
16402;DHT22;8310;44.626;11.176;2023-04-03T00:23:13;10.40;57.70
16402;DHT22;8310;44.626;11.176;2023-04-03T00:25:41;10.30;58.50
16402;DHT22;8310;44.626;11.176;2023-04-03T00:28:09;10.40;57.60
16402;DHT22;8310;44.626;11.176;2023-04-03T00:30:37;10.30;57.30
16402;DHT22;8310;44.626;11.176;2023-04-03T00:33:04;10.30;57.40
16402;DHT22;8310;44.626;11.176;2023-04-03T00:35:33;10.30;57.60
16402;DHT22;8310;44.626;11.176;2023-04-03T00:38:01;10.30;57.40
16402;DHT22;8310;44.626;11.176;2023-04-03T00:40:39;10.30;57.40
16402;DHT22;8310;44.626;11.176;2023-04-03T00:43:12;10.30;57.30
16402;DHT22;8310;44.626;11.176;2023-04-03T00:45:42;10.40;57.40
16402;DHT22;8310;44.626;11.176;2023-04-03T00:48:11;10.30;57.30
16402;DHT22;8310;44.626;11.176;2023-04-03T00:50:41;10.30;57.60
16402;DHT22;8310;44.626;11.176;2023-04-03T00:53:12;10.30;58.80
16402;DHT22;8310;44.626;11.176;2023-04-03T00:55:44;10.30;58.30
16402;DHT22;8310;44.626;11.176;2023-04-03T00:58:15;10.20;57.60
16402;DHT22;8310;44.626;11.176;2023-04-03T01:00:48;10.20;57.90
16402;DHT22;8310;44.626;11.176;2023-04-03T01:03:19;10.20;58.20
16402;DHT22;8310;44.626;11.176;2023-04-03T01:05:47;10.20;57.60
16402;DHT22;8310;44.626;11.176;2023-04-03T01:08:15;10.30;57.60
16402;DHT22;8310;44.626;11.176;2023-04-03T01:10:47;10.30;57.50
16402;DHT22;8310;44.626;11.176;2023-04-03T01:13:24;10.30;57.50
16402;DHT22;8310;44.626;11.176;2023-04-03T01:15:53;10.40;57.60
16402;DHT22;8310;44.626;11.176;2023-04-03T01:18:21;10.40;57.50
16402;DHT22;8310;44.626;11.176;2023-04-03T01:24:21;10.40;57.30
16402;DHT22;8310;44.626;11.176;2023-04-03T01:26:51;10.40;57.30
16402;DHT22;8310;44.626;11.176;2023-04-03T01:29:19;10.40;57.30
16402;DHT22;8310;44.626;11.176;2023-04-03T01:31:59;10.50;58.10
16402;DHT22;8310;44.626;11.176;2023-04-03T01:34:28;10.40;58.10
16402;DHT22;8310;44.626;11.176;2023-04-03T01:36:56;10.40;57.40
16402;DHT22;8310;44.626;11.176;2023-04-03T01:39:24;10.40;57.30
16402;DHT22;8310;44.626;11.176;2023-04-03T01:41:52;10.40;58.70
16402;DHT22;8310;44.626;11.176;2023-04-03T01:44:20;10.40;58.40
16402;DHT22;8310;44.626;11.176;2023-04-03T01:46:48;10.40;57.70
16402;DHT22;8310;44.626;11.176;2023-04-03T01:49:17;10.40;57.60
16402;DHT22;8310;44.626;11.176;2023-04-03T01:51:44;10.40;57.60
16402;DHT22;8310;44.626;11.176;2023-04-03T01:54:16;10.40;57.50
16402;DHT22;8310;44.626;11.176;2023-04-03T01:56:43;10.40;57.50
16402;DHT22;8310;44.626;11.176;2023-04-03T01:59:10;10.40;57.30
16402;DHT22;8310;44.626;11.176;2023-04-03T02:01:38;10.30;57.30
16402;DHT22;8310;44.626;11.176;2023-04-03T02:04:05;10.20;57.30
16402;DHT22;8310;44.626;11.176;2023-04-03T02:06:34;10.20;57.50
16402;DHT22;8310;44.626;11.176;2023-04-03T02:09:02;10.10;57.40
16402;DHT22;8310;44.626;11.176;2023-04-03T02:11:34;10.00;59.00
16402;DHT22;8310;44.626;11.176;2023-04-03T02:14:03;10.00;61.30
16402;DHT22;8310;44.626;11.176;2023-04-03T02:16:30;10.00;59.20
16402;DHT22;8310;44.626;11.176;2023-04-03T02:18:58;10.00;58.10
16402;DHT22;8310;44.626;11.176;2023-04-03T02:21:26;10.00;59.50
16402;DHT22;8310;44.626;11.176;2023-04-03T02:24:17;10.00;59.90
16402;DHT22;8310;44.626;11.176;2023-04-03T02:26:44;10.00;59.20
16402;DHT22;8310;44.626;11.176;2023-04-03T02:29:11;10.00;58.50
16402;DHT22;8310;44.626;11.176;2023-04-03T02:31:39;10.00;58.40
16402;DHT22;8310;44.626;11.176;2023-04-03T02:34:06;10.00;58.50
16402;DHT22;8310;44.626;11.176;2023-04-03T02:36:33;10.00;59.40
16402;DHT22;8310;44.626;11.176;2023-04-03T02:39:01;10.00;60.80
16402;DHT22;8310;44.626;11.176;2023-04-03T02:41:30;10.00;60.90
16402;DHT22;8310;44.626;11.176;2023-04-03T02:44:00;9.90;62.30
16402;DHT22;8310;44.626;11.176;2023-04-03T02:46:28;9.90;59.40
16402;DHT22;8310;44.626;11.176;2023-04-03T02:48:56;9.80;58.50
16402;DHT22;8310;44.626;11.176;2023-04-03T02:51:24;9.80;58.50
16402;DHT22;8310;44.626;11.176;2023-04-03T02:53:53;9.80;58.40
16402;DHT22;8310;44.626;11.176;2023-04-03T02:56:21;9.80;58.10
16402;DHT22;8310;44.626;11.176;2023-04-03T02:58:50;9.80;58.00
16402;DHT22;8310;44.626;11.176;2023-04-03T03:01:18;9.80;58.00
16402;DHT22;8310;44.626;11.176;2023-04-03T03:03:46;9.80;58.20
16402;DHT22;8310;44.626;11.176;2023-04-03T03:06:16;9.80;58.40
16402;DHT22;8310;44.626;11.176;2023-04-03T03:08:44;9.80;58.10
16402;DHT22;8310;44.626;11.176;2023-04-03T03:11:12;9.80;61.10
16402;DHT22;8310;44.626;11.176;2023-04-03T03:13:40;9.70;59.80
16402;DHT22;8310;44.626;11.176;2023-04-03T03:16:09;9.70;58.50
16402;DHT22;8310;44.626;11.176;2023-04-03T03:18:37;9.70;58.20
16402;DHT22;8310;44.626;11.176;2023-04-03T03:21:05;9.70;58.10
16402;DHT22;8310;44.626;11.176;2023-04-03T03:23:33;9.80;58.00
16402;DHT22;8310;44.626;11.176;2023-04-03T03:26:03;9.80;58.00
16402;DHT22;8310;44.626;11.176;2023-04-03T03:28:31;9.80;58.00
16402;DHT22;8310;44.626;11.176;2023-04-03T03:30:58;9.80;57.90
16402;DHT22;8310;44.626;11.176;2023-04-03T03:33:27;9.70;57.80
16402;DHT22;8310;44.626;11.176;2023-04-03T03:35:55;9.70;58.10
16402;DHT22;8310;44.626;11.176;2023-04-03T03:38:24;9.70;58.10
16402;DHT22;8310;44.626;11.176;2023-04-03T03:40:51;9.60;57.80
16402;DHT22;8310;44.626;11.176;2023-04-03T03:43:19;9.60;58.60
16402;DHT22;8310;44.626;11.176;2023-04-03T03:45:50;9.60;58.10
16402;DHT22;8310;44.626;11.176;2023-04-03T03:48:18;9.60;57.90
16402;DHT22;8310;44.626;11.176;2023-04-03T03:50:47;9.60;57.80
16402;DHT22;8310;44.626;11.176;2023-04-03T03:53:15;9.60;57.80
16402;DHT22;8310;44.626;11.176;2023-04-03T03:55:43;9.60;57.80
16402;DHT22;8310;44.626;11.176;2023-04-03T03:58:12;9.70;57.80
16402;DHT22;8310;44.626;11.176;2023-04-03T04:00:40;9.70;57.90
16402;DHT22;8310;44.626;11.176;2023-04-03T04:03:07;9.70;57.80
16402;DHT22;8310;44.626;11.176;2023-04-03T04:05:34;9.70;58.40
16402;DHT22;8310;44.626;11.176;2023-04-03T04:08:03;9.80;57.80
16402;DHT22;8310;44.626;11.176;2023-04-03T04:10:30;9.80;57.80
16402;DHT22;8310;44.626;11.176;2023-04-03T04:12:58;9.80;57.80
16402;DHT22;8310;44.626;11.176;2023-04-03T04:15:25;9.80;57.80
16402;DHT22;8310;44.626;11.176;2023-04-03T04:17:53;9.90;57.80
16402;DHT22;8310;44.626;11.176;2023-04-03T04:20:21;9.90;57.80
16402;DHT22;8310;44.626;11.176;2023-04-03T04:22:50;9.90;57.80
16402;DHT22;8310;44.626;11.176;2023-04-03T04:25:21;9.90;57.80
16402;DHT22;8310;44.626;11.176;2023-04-03T04:27:49;9.90;57.80
16402;DHT22;8310;44.626;11.176;2023-04-03T04:30:17;9.90;57.80
16402;DHT22;8310;44.626;11.176;2023-04-03T04:32:44;9.90;57.70
16402;DHT22;8310;44.626;11.176;2023-04-03T04:35:12;9.90;57.70
16402;DHT22;8310;44.626;11.176;2023-04-03T04:37:40;9.90;57.70
16402;DHT22;8310;44.626;11.176;2023-04-03T04:40:08;9.90;57.60
16402;DHT22;8310;44.626;11.176;2023-04-03T04:42:38;9.90;57.60
16402;DHT22;8310;44.626;11.176;2023-04-03T04:45:06;9.90;57.60
16402;DHT22;8310;44.626;11.176;2023-04-03T04:47:34;9.80;57.60
16402;DHT22;8310;44.626;11.176;2023-04-03T04:50:02;9.80;57.60
16402;DHT22;8310;44.626;11.176;2023-04-03T04:52:29;9.80;57.60
16402;DHT22;8310;44.626;11.176;2023-04-03T04:54:57;9.80;57.60
16402;DHT22;8310;44.626;11.176;2023-04-03T04:57:25;9.80;57.60
16402;DHT22;8310;44.626;11.176;2023-04-03T04:59:54;9.80;57.60
16402;DHT22;8310;44.626;11.176;2023-04-03T05:02:22;9.80;57.60
16402;DHT22;8310;44.626;11.176;2023-04-03T05:04:49;9.70;57.50
16402;DHT22;8310;44.626;11.176;2023-04-03T05:07:17;9.70;57.70
16402;DHT22;8310;44.626;11.176;2023-04-03T05:09:45;9.80;58.00
16402;DHT22;8310;44.626;11.176;2023-04-03T05:12:13;9.80;58.10
16402;DHT22;8310;44.626;11.176;2023-04-03T05:14:40;9.90;58.40
16402;DHT22;8310;44.626;11.176;2023-04-03T05:17:10;10.00;58.60
16402;DHT22;8310;44.626;11.176;2023-04-03T05:19:37;10.10;58.80
16402;DHT22;8310;44.626;11.176;2023-04-03T05:22:05;10.30;59.10
16402;DHT22;8310;44.626;11.176;2023-04-03T05:24:32;10.40;59.50
16402;DHT22;8310;44.626;11.176;2023-04-03T05:27:00;10.60;59.80
16402;DHT22;8310;44.626;11.176;2023-04-03T05:29:28;10.80;60.10
16402;DHT22;8310;44.626;11.176;2023-04-03T05:31:56;11.00;60.40
16402;DHT22;8310;44.626;11.176;2023-04-03T05:34:26;11.20;60.70
16402;DHT22;8310;44.626;11.176;2023-04-03T05:36:53;11.40;61.40
16402;DHT22;8310;44.626;11.176;2023-04-03T05:39:21;11.70;61.90
16402;DHT22;8310;44.626;11.176;2023-04-03T05:41:49;11.90;62.50
16402;DHT22;8310;44.626;11.176;2023-04-03T05:44:17;12.20;63.00
16402;DHT22;8310;44.626;11.176;2023-04-03T05:46:44;12.50;63.50
16402;DHT22;8310;44.626;11.176;2023-04-03T05:49:12;12.70;64.20
16402;DHT22;8310;44.626;11.176;2023-04-03T05:51:41;13.00;64.30
16402;DHT22;8310;44.626;11.176;2023-04-03T05:54:13;13.30;64.60
16402;DHT22;8310;44.626;11.176;2023-04-03T05:56:43;13.50;65.10
16402;DHT22;8310;44.626;11.176;2023-04-03T05:59:10;13.70;65.50
16402;DHT22;8310;44.626;11.176;2023-04-03T06:01:38;14.00;66.00
16402;DHT22;8310;44.626;11.176;2023-04-03T06:04:05;14.20;66.10
16402;DHT22;8310;44.626;11.176;2023-04-03T06:06:46;14.40;66.10
16402;DHT22;8310;44.626;11.176;2023-04-03T06:09:15;14.70;66.90
16402;DHT22;8310;44.626;11.176;2023-04-03T06:11:44;15.00;67.50
16402;DHT22;8310;44.626;11.176;2023-04-03T06:14:11;15.30;67.90
16402;DHT22;8310;44.626;11.176;2023-04-03T06:16:39;15.50;68.00
16402;DHT22;8310;44.626;11.176;2023-04-03T06:19:07;15.80;68.50
16402;DHT22;8310;44.626;11.176;2023-04-03T06:21:35;16.10;68.90
16402;DHT22;8310;44.626;11.176;2023-04-03T06:24:05;16.40;69.20
16402;DHT22;8310;44.626;11.176;2023-04-03T06:26:33;16.70;69.50
16402;DHT22;8310;44.626;11.176;2023-04-03T06:29:00;17.00;69.90
16402;DHT22;8310;44.626;11.176;2023-04-03T06:31:28;17.30;69.70
16402;DHT22;8310;44.626;11.176;2023-04-03T06:33:55;17.50;69.80
16402;DHT22;8310;44.626;11.176;2023-04-03T06:36:23;17.80;69.60
16402;DHT22;8310;44.626;11.176;2023-04-03T06:38:51;17.90;68.60
16402;DHT22;8310;44.626;11.176;2023-04-03T06:41:20;18.00;66.40
16402;DHT22;8310;44.626;11.176;2023-04-03T06:43:48;17.90;64.70
16402;DHT22;8310;44.626;11.176;2023-04-03T06:46:15;17.60;62.60
16402;DHT22;8310;44.626;11.176;2023-04-03T06:48:44;17.20;61.00
16402;DHT22;8310;44.626;11.176;2023-04-03T06:51:17;16.70;59.80
16402;DHT22;8310;44.626;11.176;2023-04-03T06:53:46;16.20;59.80
16402;DHT22;8310;44.626;11.176;2023-04-03T06:56:14;15.80;59.80
16402;DHT22;8310;44.626;11.176;2023-04-03T06:58:43;15.60;59.80
16402;DHT22;8310;44.626;11.176;2023-04-03T07:01:12;15.30;59.40
16402;DHT22;8310;44.626;11.176;2023-04-03T07:03:40;15.10;59.70
16402;DHT22;8310;44.626;11.176;2023-04-03T07:06:10;15.00;59.40
16402;DHT22;8310;44.626;11.176;2023-04-03T07:08:39;14.90;59.30
16402;DHT22;8310;44.626;11.176;2023-04-03T07:11:07;14.80;59.20
16402;DHT22;8310;44.626;11.176;2023-04-03T07:13:35;14.80;59.30
16402;DHT22;8310;44.626;11.176;2023-04-03T07:16:06;14.70;59.30
16402;DHT22;8310;44.626;11.176;2023-04-03T07:18:34;14.80;59.40
16402;DHT22;8310;44.626;11.176;2023-04-03T07:21:02;14.80;59.40
16402;DHT22;8310;44.626;11.176;2023-04-03T07:23:30;14.80;59.80
16402;DHT22;8310;44.626;11.176;2023-04-03T07:25:57;14.90;59.90
16402;DHT22;8310;44.626;11.176;2023-04-03T07:28:25;15.00;60.00
16402;DHT22;8310;44.626;11.176;2023-04-03T07:30:58;15.10;60.00
16402;DHT22;8310;44.626;11.176;2023-04-03T07:33:28;15.20;59.80
16402;DHT22;8310;44.626;11.176;2023-04-03T07:35:56;15.30;59.70
16402;DHT22;8310;44.626;11.176;2023-04-03T07:38:24;15.40;59.90
16402;DHT22;8310;44.626;11.176;2023-04-03T07:40:52;15.50;60.10
16402;DHT22;8310;44.626;11.176;2023-04-03T07:43:21;15.60;60.30
16402;DHT22;8310;44.626;11.176;2023-04-03T07:45:50;15.80;60.30
16402;DHT22;8310;44.626;11.176;2023-04-03T07:48:19;16.00;60.30
16402;DHT22;8310;44.626;11.176;2023-04-03T07:50:48;16.20;60.40
16402;DHT22;8310;44.626;11.176;2023-04-03T07:53:16;16.30;60.40
16402;DHT22;8310;44.626;11.176;2023-04-03T07:55:46;16.50;60.60
16402;DHT22;8310;44.626;11.176;2023-04-03T07:58:16;16.60;60.50
16402;DHT22;8310;44.626;11.176;2023-04-03T08:00:44;16.70;60.50
16402;DHT22;8310;44.626;11.176;2023-04-03T08:03:12;16.80;60.50
16402;DHT22;8310;44.626;11.176;2023-04-03T08:05:40;16.90;60.50
16402;DHT22;8310;44.626;11.176;2023-04-03T08:08:11;17.00;60.60
16402;DHT22;8310;44.626;11.176;2023-04-03T08:10:39;17.10;60.70
16402;DHT22;8310;44.626;11.176;2023-04-03T08:13:08;17.30;60.60
16402;DHT22;8310;44.626;11.176;2023-04-03T08:15:36;17.40;60.70
16402;DHT22;8310;44.626;11.176;2023-04-03T08:18:04;17.50;60.70
16402;DHT22;8310;44.626;11.176;2023-04-03T08:20:32;17.70;60.70
16402;DHT22;8310;44.626;11.176;2023-04-03T08:23:00;17.80;60.70
16402;DHT22;8310;44.626;11.176;2023-04-03T08:25:29;18.00;60.90
16402;DHT22;8310;44.626;11.176;2023-04-03T08:27:57;18.10;60.90
16402;DHT22;8310;44.626;11.176;2023-04-03T08:30:25;18.30;61.00
16402;DHT22;8310;44.626;11.176;2023-04-03T08:32:52;18.40;60.90
16402;DHT22;8310;44.626;11.176;2023-04-03T08:35:19;18.60;61.00
16402;DHT22;8310;44.626;11.176;2023-04-03T08:37:47;18.70;60.90
16402;DHT22;8310;44.626;11.176;2023-04-03T08:40:16;18.80;60.90
16402;DHT22;8310;44.626;11.176;2023-04-03T08:42:56;18.90;60.20
16402;DHT22;8310;44.626;11.176;2023-04-03T08:45:30;18.90;59.80
16402;DHT22;8310;44.626;11.176;2023-04-03T08:48:04;18.80;59.60
16402;DHT22;8310;44.626;11.176;2023-04-03T08:50:37;18.80;59.40
16402;DHT22;8310;44.626;11.176;2023-04-03T08:53:11;18.70;59.00
16402;DHT22;8310;44.626;11.176;2023-04-03T08:55:44;18.60;59.40
16402;DHT22;8310;44.626;11.176;2023-04-03T08:58:16;18.60;59.40
16402;DHT22;8310;44.626;11.176;2023-04-03T09:00:48;18.60;59.20
16402;DHT22;8310;44.626;11.176;2023-04-03T09:03:18;18.60;59.00
16402;DHT22;8310;44.626;11.176;2023-04-03T09:05:50;18.40;58.60
16402;DHT22;8310;44.626;11.176;2023-04-03T09:08:22;18.30;58.50
16402;DHT22;8310;44.626;11.176;2023-04-03T09:11:02;18.10;58.40
16402;DHT22;8310;44.626;11.176;2023-04-03T09:13:37;17.90;58.50
16402;DHT22;8310;44.626;11.176;2023-04-03T09:16:20;17.70;58.20
16402;DHT22;8310;44.626;11.176;2023-04-03T09:18:52;17.50;57.80
16402;DHT22;8310;44.626;11.176;2023-04-03T09:21:26;17.40;58.50
16402;DHT22;8310;44.626;11.176;2023-04-03T09:24:00;17.40;59.00
16402;DHT22;8310;44.626;11.176;2023-04-03T09:26:31;17.40;58.60
16402;DHT22;8310;44.626;11.176;2023-04-03T09:29:06;17.40;58.80
16402;DHT22;8310;44.626;11.176;2023-04-03T09:31:38;17.50;59.20
16402;DHT22;8310;44.626;11.176;2023-04-03T09:34:13;17.70;59.40
16402;DHT22;8310;44.626;11.176;2023-04-03T09:36:44;17.80;59.30
16402;DHT22;8310;44.626;11.176;2023-04-03T09:39:14;17.90;59.40
16402;DHT22;8310;44.626;11.176;2023-04-03T09:41:42;18.00;59.30
16402;DHT22;8310;44.626;11.176;2023-04-03T09:44:24;18.00;59.10
16402;DHT22;8310;44.626;11.176;2023-04-03T09:46:52;18.00;58.80
16402;DHT22;8310;44.626;11.176;2023-04-03T09:49:20;18.00;58.80
16402;DHT22;8310;44.626;11.176;2023-04-03T09:51:48;17.90;58.80
16402;DHT22;8310;44.626;11.176;2023-04-03T09:54:26;17.90;58.40
16402;DHT22;8310;44.626;11.176;2023-04-03T09:56:59;17.70;58.10
16402;DHT22;8310;44.626;11.176;2023-04-03T09:59:31;17.60;58.10
16402;DHT22;8310;44.626;11.176;2023-04-03T10:02:01;17.50;58.20
16402;DHT22;8310;44.626;11.176;2023-04-03T10:04:39;17.50;58.10
16402;DHT22;8310;44.626;11.176;2023-04-03T10:07:31;17.40;58.20
16402;DHT22;8310;44.626;11.176;2023-04-03T10:10:02;17.40;58.50
16402;DHT22;8310;44.626;11.176;2023-04-03T10:12:30;17.30;58.10
16402;DHT22;8310;44.626;11.176;2023-04-03T10:15:00;17.30;58.50
16402;DHT22;8310;44.626;11.176;2023-04-03T10:17:37;17.20;58.30
16402;DHT22;8310;44.626;11.176;2023-04-03T10:20:21;17.00;58.40
16402;DHT22;8310;44.626;11.176;2023-04-03T10:23:00;16.90;58.30
16402;DHT22;8310;44.626;11.176;2023-04-03T10:25:32;16.80;58.20
16402;DHT22;8310;44.626;11.176;2023-04-03T10:28:06;16.70;59.30
16402;DHT22;8310;44.626;11.176;2023-04-03T10:30:42;16.60;57.90
16402;DHT22;8310;44.626;11.176;2023-04-03T10:33:20;16.60;57.90
16402;DHT22;8310;44.626;11.176;2023-04-03T10:35:58;16.50;58.00
16402;DHT22;8310;44.626;11.176;2023-04-03T10:38:35;16.50;58.50
16402;DHT22;8310;44.626;11.176;2023-04-03T10:41:14;16.40;58.50
16402;DHT22;8310;44.626;11.176;2023-04-03T10:43:47;16.30;59.40
16402;DHT22;8310;44.626;11.176;2023-04-03T10:46:25;16.20;58.40
16402;DHT22;8310;44.626;11.176;2023-04-03T10:49:14;16.10;58.60
16402;DHT22;8310;44.626;11.176;2023-04-03T10:51:46;16.00;58.30
16402;DHT22;8310;44.626;11.176;2023-04-03T10:54:20;15.90;57.90
16402;DHT22;8310;44.626;11.176;2023-04-03T10:56:53;16.00;58.20
16402;DHT22;8310;44.626;11.176;2023-04-03T10:59:26;16.00;58.50
16402;DHT22;8310;44.626;11.176;2023-04-03T11:01:59;16.00;58.50
16402;DHT22;8310;44.626;11.176;2023-04-03T11:04:30;16.10;58.80
16402;DHT22;8310;44.626;11.176;2023-04-03T11:07:01;16.10;58.50
16402;DHT22;8310;44.626;11.176;2023-04-03T11:09:31;16.20;58.60
16402;DHT22;8310;44.626;11.176;2023-04-03T11:12:02;16.30;58.80
16402;DHT22;8310;44.626;11.176;2023-04-03T11:14:33;16.40;58.80
16402;DHT22;8310;44.626;11.176;2023-04-03T11:17:19;16.50;58.90
16402;DHT22;8310;44.626;11.176;2023-04-03T11:19:52;16.60;59.30
16402;DHT22;8310;44.626;11.176;2023-04-03T11:22:28;16.70;59.10
16402;DHT22;8310;44.626;11.176;2023-04-03T11:25:03;16.90;59.40
16402;DHT22;8310;44.626;11.176;2023-04-03T11:27:37;17.00;59.30
16402;DHT22;8310;44.626;11.176;2023-04-03T11:30:09;17.10;58.70
16402;DHT22;8310;44.626;11.176;2023-04-03T11:35:57;17.10;58.70
16402;DHT22;8310;44.626;11.176;2023-04-03T11:38:30;17.10;58.70
16402;DHT22;8310;44.626;11.176;2023-04-03T11:41:03;17.10;58.70
16402;DHT22;8310;44.626;11.176;2023-04-03T11:43:32;17.20;58.70
16402;DHT22;8310;44.626;11.176;2023-04-03T11:46:01;17.20;59.20
16402;DHT22;8310;44.626;11.176;2023-04-03T11:48:54;17.30;58.80
16402;DHT22;8310;44.626;11.176;2023-04-03T11:51:52;17.40;58.30
16402;DHT22;8310;44.626;11.176;2023-04-03T11:54:48;17.50;58.80
16402;DHT22;8310;44.626;11.176;2023-04-03T11:57:46;17.70;59.40
16402;DHT22;8310;44.626;11.176;2023-04-03T12:10:13;18.40;57.40
16402;DHT22;8310;44.626;11.176;2023-04-03T12:12:42;18.40;58.40
16402;DHT22;8310;44.626;11.176;2023-04-03T12:15:22;18.40;59.00
16402;DHT22;8310;44.626;11.176;2023-04-03T12:17:50;18.40;59.20
16402;DHT22;8310;44.626;11.176;2023-04-03T12:20:55;18.50;58.30
16402;DHT22;8310;44.626;11.176;2023-04-03T12:23:25;18.60;59.10
16402;DHT22;8310;44.626;11.176;2023-04-03T12:26:00;18.80;59.60
16402;DHT22;8310;44.626;11.176;2023-04-03T12:28:29;18.90;58.90
16402;DHT22;8310;44.626;11.176;2023-04-03T12:31:02;19.00;59.30
16402;DHT22;8310;44.626;11.176;2023-04-03T12:33:37;19.10;59.50
16402;DHT22;8310;44.626;11.176;2023-04-03T12:36:12;19.20;58.90
16402;DHT22;8310;44.626;11.176;2023-04-03T12:39:13;19.30;58.10
16402;DHT22;8310;44.626;11.176;2023-04-03T12:41:52;19.40;57.60
16402;DHT22;8310;44.626;11.176;2023-04-03T12:44:32;19.40;58.50
16402;DHT22;8310;44.626;11.176;2023-04-03T12:47:16;19.30;58.80
16402;DHT22;8310;44.626;11.176;2023-04-03T12:49:45;19.40;59.40
16402;DHT22;8310;44.626;11.176;2023-04-03T12:52:20;19.60;59.70
16402;DHT22;8310;44.626;11.176;2023-04-03T12:54:51;19.70;59.70
16402;DHT22;8310;44.626;11.176;2023-04-03T12:57:23;19.90;59.50
16402;DHT22;8310;44.626;11.176;2023-04-03T12:59:51;19.90;59.30
16402;DHT22;8310;44.626;11.176;2023-04-03T13:02:22;19.90;59.10
16402;DHT22;8310;44.626;11.176;2023-04-03T13:04:51;19.90;59.20
16402;DHT22;8310;44.626;11.176;2023-04-03T13:07:24;19.90;59.30
16402;DHT22;8310;44.626;11.176;2023-04-03T13:10:00;19.90;59.50
16402;DHT22;8310;44.626;11.176;2023-04-03T13:12:29;20.00;59.50
16402;DHT22;8310;44.626;11.176;2023-04-03T13:14:59;20.10;59.30
16402;DHT22;8310;44.626;11.176;2023-04-03T13:17:26;20.10;59.10
16402;DHT22;8310;44.626;11.176;2023-04-03T13:19:55;20.10;59.00
16402;DHT22;8310;44.626;11.176;2023-04-03T13:23:00;20.10;58.20
16402;DHT22;8310;44.626;11.176;2023-04-03T13:25:31;20.00;54.90
16402;DHT22;8310;44.626;11.176;2023-04-03T13:28:01;19.90;55.80
16402;DHT22;8310;44.626;11.176;2023-04-03T13:30:30;19.90;58.40
16402;DHT22;8310;44.626;11.176;2023-04-03T13:33:01;19.90;59.00
16402;DHT22;8310;44.626;11.176;2023-04-03T13:35:36;20.00;59.10
16402;DHT22;8310;44.626;11.176;2023-04-03T13:38:07;20.20;59.30
16402;DHT22;8310;44.626;11.176;2023-04-03T13:40:49;20.20;58.90
16402;DHT22;8310;44.626;11.176;2023-04-03T13:43:21;20.20;58.70
16402;DHT22;8310;44.626;11.176;2023-04-03T13:45:56;20.20;58.40
16402;DHT22;8310;44.626;11.176;2023-04-03T13:48:25;20.20;58.30
16402;DHT22;8310;44.626;11.176;2023-04-03T13:50:57;20.10;58.30
16402;DHT22;8310;44.626;11.176;2023-04-03T13:53:26;20.10;56.70
16402;DHT22;8310;44.626;11.176;2023-04-03T13:56:00;20.00;57.80
16402;DHT22;8310;44.626;11.176;2023-04-03T13:58:34;19.90;57.50
16402;DHT22;8310;44.626;11.176;2023-04-03T14:01:08;19.80;57.10
16402;DHT22;8310;44.626;11.176;2023-04-03T14:03:42;19.80;57.60
16402;DHT22;8310;44.626;11.176;2023-04-03T14:06:12;19.80;57.50
16402;DHT22;8310;44.626;11.176;2023-04-03T14:08:40;19.70;56.90
16402;DHT22;8310;44.626;11.176;2023-04-03T14:11:12;19.70;55.40
16402;DHT22;8310;44.626;11.176;2023-04-03T14:13:44;19.70;57.50
16402;DHT22;8310;44.626;11.176;2023-04-03T14:16:13;19.70;57.60
16402;DHT22;8310;44.626;11.176;2023-04-03T14:18:42;19.70;57.40
16402;DHT22;8310;44.626;11.176;2023-04-03T14:21:11;19.70;57.70
16402;DHT22;8310;44.626;11.176;2023-04-03T14:23:38;19.70;56.90
16402;DHT22;8310;44.626;11.176;2023-04-03T14:26:10;19.60;54.30
16402;DHT22;8310;44.626;11.176;2023-04-03T14:28:38;19.60;57.20
16402;DHT22;8310;44.626;11.176;2023-04-03T14:31:08;19.60;57.30
16402;DHT22;8310;44.626;11.176;2023-04-03T14:33:36;19.60;55.70
16402;DHT22;8310;44.626;11.176;2023-04-03T14:36:12;19.60;54.60
16402;DHT22;8310;44.626;11.176;2023-04-03T14:38:41;19.50;56.80
16402;DHT22;8310;44.626;11.176;2023-04-03T14:41:10;19.50;57.30
16402;DHT22;8310;44.626;11.176;2023-04-03T14:43:40;19.60;57.70
16402;DHT22;8310;44.626;11.176;2023-04-03T14:46:13;19.70;57.40
16402;DHT22;8310;44.626;11.176;2023-04-03T14:48:41;19.70;53.00
16402;DHT22;8310;44.626;11.176;2023-04-03T14:51:10;19.60;54.70
16402;DHT22;8310;44.626;11.176;2023-04-03T14:53:38;19.50;56.40
16402;DHT22;8310;44.626;11.176;2023-04-03T14:56:12;19.40;56.70
16402;DHT22;8310;44.626;11.176;2023-04-03T14:58:40;19.40;56.50
16402;DHT22;8310;44.626;11.176;2023-04-03T15:01:09;19.40;57.10
16402;DHT22;8310;44.626;11.176;2023-04-03T15:03:38;19.40;56.80
16402;DHT22;8310;44.626;11.176;2023-04-03T15:06:08;19.40;57.00
16402;DHT22;8310;44.626;11.176;2023-04-03T15:08:35;19.50;57.50
16402;DHT22;8310;44.626;11.176;2023-04-03T15:11:03;19.60;57.60
16402;DHT22;8310;44.626;11.176;2023-04-03T15:13:30;19.70;57.30
16402;DHT22;8310;44.626;11.176;2023-04-03T15:15:58;19.70;57.40
16402;DHT22;8310;44.626;11.176;2023-04-03T15:18:27;19.80;57.70
16402;DHT22;8310;44.626;11.176;2023-04-03T15:20:57;19.80;57.40
16402;DHT22;8310;44.626;11.176;2023-04-03T15:23:24;19.80;57.00
16402;DHT22;8310;44.626;11.176;2023-04-03T15:25:52;19.80;57.40
16402;DHT22;8310;44.626;11.176;2023-04-03T15:28:23;19.80;57.50
16402;DHT22;8310;44.626;11.176;2023-04-03T15:30:52;19.90;58.20
16402;DHT22;8310;44.626;11.176;2023-04-03T15:33:21;19.90;57.70
16402;DHT22;8310;44.626;11.176;2023-04-03T15:35:49;20.00;57.80
16402;DHT22;8310;44.626;11.176;2023-04-03T15:38:18;20.10;57.80
16402;DHT22;8310;44.626;11.176;2023-04-03T15:40:45;20.10;57.60
16402;DHT22;8310;44.626;11.176;2023-04-03T15:43:14;20.10;57.50
16402;DHT22;8310;44.626;11.176;2023-04-03T15:45:43;20.10;57.50
16402;DHT22;8310;44.626;11.176;2023-04-03T15:48:11;20.10;57.50
16402;DHT22;8310;44.626;11.176;2023-04-03T15:50:39;20.10;57.50
16402;DHT22;8310;44.626;11.176;2023-04-03T15:53:07;20.10;57.40
16402;DHT22;8310;44.626;11.176;2023-04-03T15:55:37;20.00;57.30
16402;DHT22;8310;44.626;11.176;2023-04-03T15:58:04;20.00;57.00
16402;DHT22;8310;44.626;11.176;2023-04-03T16:00:32;19.90;56.70
16402;DHT22;8310;44.626;11.176;2023-04-03T16:03:04;19.80;56.80
16402;DHT22;8310;44.626;11.176;2023-04-03T16:05:31;19.70;56.30
16402;DHT22;8310;44.626;11.176;2023-04-03T16:08:00;19.60;56.50
16402;DHT22;8310;44.626;11.176;2023-04-03T16:10:28;19.50;56.60